Time;durP1;ratioP1;P1;durP2;ratioP2;P2;SDS_P1;SDS_P2;PMS_P1;PMS_P2;Temp;Humidity;BMP_temperature;BMP_pressure;BME280_temperature;BME280_humidity;BME280_pressure;Samples;Min_cycle;Max_cycle;Signal;HPM_P1;HPM_P2
2023/04/04 00:01:51;;;;;;;;;;;18.80;51.00;;;;;;6244834;28;19913;-70
2023/04/04 00:04:52;;;;;;;;;;;18.80;50.90;;;;;;6244136;28;19944;-71
2023/04/04 00:07:53;;;;;;;;;;;18.90;51.10;;;;;;6227525;28;19915;-70
2023/04/04 00:11:00;;;;;;;;;;;18.80;51.00;;;;;;6263524;28;19932;-70
2023/04/04 00:14:01;;;;;;;;;;;18.80;50.80;;;;;;6269402;28;20005;-71
2023/04/04 00:17:02;;;;;;;;;;;18.80;51.00;;;;;;6251435;28;20380;-70
2023/04/04 00:20:03;;;;;;;;;;;18.80;50.80;;;;;;6269596;28;19909;-71
2023/04/04 00:23:04;;;;;;;;;;;18.80;50.90;;;;;;6262057;28;19917;-70
2023/04/04 00:26:07;;;;;;;;;;;18.80;50.80;;;;;;6244251;28;19913;-70
2023/04/04 00:29:08;;;;;;;;;;;18.80;50.90;;;;;;6244540;28;19910;-70
2023/04/04 00:32:08;;;;;;;;;;;18.80;50.90;;;;;;6243801;28;20403;-70
2023/04/04 00:35:09;;;;;;;;;;;18.80;51.00;;;;;;6243620;28;20328;-70
2023/04/04 00:38:10;;;;;;;;;;;18.80;51.00;;;;;;6226099;28;19972;-71
2023/04/04 00:41:11;;;;;;;;;;;18.80;50.90;;;;;;6244076;28;20485;-70
2023/04/04 00:44:13;;;;;;;;;;;18.80;50.90;;;;;;6257630;28;19916;-70
2023/04/04 00:47:13;;;;;;;;;;;18.80;50.70;;;;;;6226409;28;19956;-70
2023/04/04 00:50:15;;;;;;;;;;;18.80;50.80;;;;;;6226925;28;19914;-70
2023/04/04 00:53:16;;;;;;;;;;;18.80;50.90;;;;;;6244644;28;19978;-70
2023/04/04 00:56:17;;;;;;;;;;;18.80;51.00;;;;;;6226061;28;20403;-71
2023/04/04 00:59:17;;;;;;;;;;;18.80;50.80;;;;;;6226162;28;20287;-70
2023/04/04 01:02:18;;;;;;;;;;;18.80;50.80;;;;;;6267161;28;19917;-71
2023/04/04 01:05:19;;;;;;;;;;;18.80;50.80;;;;;;6264720;28;19943;-70
2023/04/04 01:08:22;;;;;;;;;;;18.80;50.70;;;;;;6249122;28;19913;-70
2023/04/04 01:11:23;;;;;;;;;;;18.80;50.80;;;;;;6230818;28;19919;-70
2023/04/04 01:14:23;;;;;;;;;;;18.80;50.90;;;;;;6230926;28;20362;-69
2023/04/04 01:17:25;;;;;;;;;;;18.80;50.70;;;;;;6249005;28;19913;-69
2023/04/04 01:20:25;;;;;;;;;;;18.80;51.00;;;;;;6248825;28;19994;-69
2023/04/04 01:23:31;;;;;;;;;;;18.80;50.80;;;;;;6248340;28;19917;-69
2023/04/04 01:26:32;;;;;;;;;;;18.80;50.70;;;;;;6253167;28;19995;-69
2023/04/04 01:29:32;;;;;;;;;;;18.80;50.80;;;;;;6254863;28;19913;-69
2023/04/04 01:32:35;;;;;;;;;;;18.80;50.90;;;;;;6251518;28;19916;-70
2023/04/04 01:35:36;;;;;;;;;;;18.80;50.90;;;;;;6234763;28;19909;-69
2023/04/04 01:38:39;;;;;;;;;;;18.80;51.00;;;;;;6272699;28;20370;-69
2023/04/04 01:41:41;;;;;;;;;;;18.80;50.90;;;;;;6242235;28;19936;-69
2023/04/04 01:44:41;;;;;;;;;;;18.80;51.00;;;;;;6247615;28;19913;-69
2023/04/04 01:47:42;;;;;;;;;;;18.80;51.00;;;;;;6247953;28;20471;-69
2023/04/04 01:50:43;;;;;;;;;;;18.80;51.00;;;;;;6250973;28;20326;-69
2023/04/04 01:53:43;;;;;;;;;;;18.80;50.80;;;;;;6253814;28;20398;-69
2023/04/04 01:56:45;;;;;;;;;;;18.80;51.00;;;;;;6243135;28;19927;-69
2023/04/04 01:59:45;;;;;;;;;;;18.80;51.00;;;;;;6229752;28;20392;-70
2023/04/04 02:02:46;;;;;;;;;;;18.80;51.00;;;;;;6247368;28;19913;-68
2023/04/04 02:05:47;;;;;;;;;;;18.80;51.10;;;;;;6246502;28;19918;-69
2023/04/04 02:08:47;;;;;;;;;;;18.80;51.10;;;;;;6247230;28;19967;-69
2023/04/04 02:11:48;;;;;;;;;;;18.80;51.10;;;;;;6247331;28;19909;-69
2023/04/04 02:14:49;;;;;;;;;;;18.80;51.10;;;;;;6246987;28;19932;-69
2023/04/04 02:17:49;;;;;;;;;;;18.70;51.00;;;;;;6263185;28;19919;-69
2023/04/04 02:20:56;;;;;;;;;;;18.80;50.90;;;;;;6271806;28;19940;-70
2023/04/04 02:23:57;;;;;;;;;;;18.80;51.10;;;;;;6228696;28;19913;-69
2023/04/04 02:26:57;;;;;;;;;;;18.70;51.00;;;;;;6255171;28;19916;-72
2023/04/04 02:29:58;;;;;;;;;;;18.70;51.00;;;;;;6271183;28;19913;-70
2023/04/04 02:32:59;;;;;;;;;;;18.80;51.00;;;;;;6253820;28;19944;-69
2023/04/04 02:35:59;;;;;;;;;;;18.70;51.00;;;;;;6254004;28;19916;-69
2023/04/04 02:39:01;;;;;;;;;;;18.70;51.00;;;;;;6246849;28;19909;-69
2023/04/04 02:42:01;;;;;;;;;;;18.80;51.10;;;;;;6253206;28;19959;-69
2023/04/04 02:45:02;;;;;;;;;;;18.70;50.90;;;;;;6271270;28;19909;-69
2023/04/04 02:48:03;;;;;;;;;;;18.70;51.00;;;;;;6253008;28;20401;-70
2023/04/04 02:51:04;;;;;;;;;;;18.80;51.00;;;;;;6238619;28;19909;-69
2023/04/04 02:54:04;;;;;;;;;;;18.70;51.00;;;;;;6263284;28;20403;-69
2023/04/04 02:57:05;;;;;;;;;;;18.70;51.00;;;;;;6270419;28;19924;-69
2023/04/04 03:00:06;;;;;;;;;;;18.70;51.00;;;;;;6270614;28;19913;-69
2023/04/04 03:03:06;;;;;;;;;;;18.70;51.00;;;;;;6239351;28;19940;-69
2023/04/04 03:06:07;;;;;;;;;;;18.70;51.00;;;;;;6227942;28;19941;-70
2023/04/04 03:09:08;;;;;;;;;;;18.70;51.00;;;;;;6246096;28;19909;-69
2023/04/04 03:12:08;;;;;;;;;;;18.70;51.00;;;;;;6245377;28;19909;-69
2023/04/04 03:15:09;;;;;;;;;;;18.70;51.00;;;;;;6246106;28;20068;-69
2023/04/04 03:18:10;;;;;;;;;;;18.70;51.00;;;;;;6227684;28;20084;-69
2023/04/04 03:21:10;;;;;;;;;;;18.70;51.00;;;;;;6245578;28;19961;-70
2023/04/04 03:24:11;;;;;;;;;;;18.70;50.90;;;;;;6244996;28;19913;-68
2023/04/04 03:27:12;;;;;;;;;;;18.70;50.90;;;;;;6247305;28;19915;-69
2023/04/04 03:30:12;;;;;;;;;;;18.70;51.00;;;;;;6269112;28;19916;-69
2023/04/04 03:33:14;;;;;;;;;;;18.70;51.00;;;;;;6269899;28;19915;-69
2023/04/04 03:36:15;;;;;;;;;;;18.70;51.00;;;;;;6233387;28;20360;-69
2023/04/04 03:39:15;;;;;;;;;;;18.70;50.90;;;;;;6227392;28;20292;-69
2023/04/04 03:42:16;;;;;;;;;;;18.70;51.60;;;;;;6244907;28;19920;-70
2023/04/04 03:45:17;;;;;;;;;;;18.70;50.90;;;;;;6227271;28;19917;-70
2023/04/04 03:48:18;;;;;;;;;;;18.70;50.90;;;;;;6253405;28;19913;-69
2023/04/04 03:51:22;;;;;;;;;;;18.70;51.00;;;;;;6269572;28;19909;-68
2023/04/04 03:54:26;;;;;;;;;;;18.70;50.90;;;;;;6269772;28;19909;-69
2023/04/04 03:57:27;;;;;;;;;;;18.70;51.00;;;;;;6269406;28;19925;-69
2023/04/04 04:00:27;;;;;;;;;;;18.70;50.90;;;;;;6269523;28;19948;-69
2023/04/04 04:03:28;;;;;;;;;;;18.70;50.90;;;;;;6268905;28;20007;-70
2023/04/04 04:06:29;;;;;;;;;;;18.70;50.90;;;;;;6269529;28;19912;-69
2023/04/04 04:09:29;;;;;;;;;;;18.70;50.90;;;;;;6268702;28;20020;-68
2023/04/04 04:12:30;;;;;;;;;;;18.70;50.90;;;;;;6268941;28;19920;-69
2023/04/04 04:15:30;;;;;;;;;;;18.70;50.90;;;;;;6245757;28;19913;-69
2023/04/04 04:18:32;;;;;;;;;;;18.70;50.90;;;;;;6250550;28;20003;-68
2023/04/04 04:21:32;;;;;;;;;;;18.70;50.90;;;;;;6268643;28;19920;-69
2023/04/04 04:24:33;;;;;;;;;;;18.70;50.80;;;;;;6268698;28;19913;-69
2023/04/04 04:27:34;;;;;;;;;;;18.70;50.90;;;;;;6250594;28;19913;-69
2023/04/04 04:30:35;;;;;;;;;;;18.70;50.90;;;;;;6268746;28;19920;-69
2023/04/04 04:33:36;;;;;;;;;;;18.70;50.80;;;;;;6268524;28;19917;-69
2023/04/04 04:36:36;;;;;;;;;;;18.70;50.90;;;;;;6246902;28;20450;-69
2023/04/04 04:39:37;;;;;;;;;;;18.70;50.80;;;;;;6237766;28;19909;-69
2023/04/04 04:42:42;;;;;;;;;;;18.70;50.80;;;;;;6250767;28;19967;-69
2023/04/04 04:45:42;;;;;;;;;;;18.60;50.80;;;;;;6268318;28;19915;-68
2023/04/04 04:48:43;;;;;;;;;;;18.70;50.80;;;;;;6250447;28;19916;-69
2023/04/04 04:51:43;;;;;;;;;;;18.70;50.90;;;;;;6268331;28;20044;-69
2023/04/04 04:54:44;;;;;;;;;;;18.70;50.80;;;;;;6238954;28;19909;-68
2023/04/04 04:57:48;;;;;;;;;;;18.70;50.80;;;;;;6243561;28;19929;-69
2023/04/04 05:00:48;;;;;;;;;;;18.60;50.70;;;;;;6225634;28;19916;-69
2023/04/04 05:03:49;;;;;;;;;;;18.70;50.80;;;;;;6242979;28;19913;-69
2023/04/04 05:06:49;;;;;;;;;;;18.70;50.80;;;;;;6225705;28;19909;-69
2023/04/04 05:09:50;;;;;;;;;;;18.70;50.70;;;;;;6243442;28;19916;-69
2023/04/04 05:12:51;;;;;;;;;;;18.70;50.80;;;;;;6225742;28;19934;-69
2023/04/04 05:15:51;;;;;;;;;;;18.70;50.70;;;;;;6215706;28;19916;-69
2023/04/04 05:18:52;;;;;;;;;;;18.60;50.70;;;;;;6225632;28;19909;-69
2023/04/04 05:21:53;;;;;;;;;;;18.70;50.80;;;;;;6243221;28;19913;-69
2023/04/04 05:24:54;;;;;;;;;;;18.60;50.70;;;;;;6243158;28;19917;-68
2023/04/04 05:27:56;;;;;;;;;;;18.60;50.70;;;;;;6243115;28;19909;-68
2023/04/04 05:30:57;;;;;;;;;;;18.60;50.70;;;;;;6225537;28;19910;-69
2023/04/04 05:33:57;;;;;;;;;;;18.60;50.70;;;;;;6245477;28;19920;-69
2023/04/04 05:36:58;;;;;;;;;;;18.60;50.70;;;;;;6243153;28;20003;-69
2023/04/04 05:39:58;;;;;;;;;;;18.70;50.80;;;;;;6249713;28;20419;-68
2023/04/04 05:42:59;;;;;;;;;;;18.60;50.70;;;;;;6268366;28;19913;-69
2023/04/04 05:46:00;;;;;;;;;;;18.70;50.70;;;;;;6252782;28;20387;-69
2023/04/04 05:49:00;;;;;;;;;;;18.60;50.70;;;;;;6225339;28;19916;-68
2023/04/04 05:52:01;;;;;;;;;;;18.60;50.70;;;;;;6249155;28;19968;-70
2023/04/04 05:55:02;;;;;;;;;;;18.70;50.70;;;;;;6271806;28;20020;-68
2023/04/04 05:58:02;;;;;;;;;;;18.60;50.70;;;;;;6272306;28;19967;-69
2023/04/04 06:01:07;;;;;;;;;;;18.70;50.70;;;;;;6237922;28;20364;-69
2023/04/04 06:04:08;;;;;;;;;;;18.70;50.70;;;;;;6250328;28;19913;-70
2023/04/04 06:07:09;;;;;;;;;;;18.70;50.80;;;;;;6231057;28;19928;-70
2023/04/04 06:10:10;;;;;;;;;;;18.70;50.70;;;;;;6252738;28;19909;-69
2023/04/04 06:13:10;;;;;;;;;;;18.60;50.70;;;;;;6249165;28;19948;-69
2023/04/04 06:16:11;;;;;;;;;;;18.60;50.50;;;;;;6239521;28;19948;-70
2023/04/04 06:19:11;;;;;;;;;;;18.60;50.70;;;;;;6254694;28;19909;-70
2023/04/04 06:22:12;;;;;;;;;;;18.60;50.80;;;;;;6231924;28;19913;-70
2023/04/04 06:25:13;;;;;;;;;;;18.60;50.80;;;;;;6273321;28;19909;-70
2023/04/04 06:28:14;;;;;;;;;;;18.70;50.90;;;;;;6263670;28;20291;-70
2023/04/04 06:31:15;;;;;;;;;;;18.60;50.90;;;;;;6273293;28;20015;-70
2023/04/04 06:34:16;;;;;;;;;;;18.70;50.90;;;;;;6249487;28;19909;-70
2023/04/04 06:37:17;;;;;;;;;;;18.70;51.10;;;;;;6223980;28;20544;-69
2023/04/04 06:40:17;;;;;;;;;;;18.70;51.10;;;;;;6248665;28;19956;-70
2023/04/04 06:43:18;;;;;;;;;;;18.60;51.00;;;;;;6237698;28;19917;-70
2023/04/04 06:46:19;;;;;;;;;;;18.60;51.00;;;;;;6255118;28;19916;-70
2023/04/04 06:49:19;;;;;;;;;;;18.70;51.20;;;;;;6239425;28;19913;-69
2023/04/04 06:52:20;;;;;;;;;;;18.60;51.10;;;;;;6248754;28;19909;-70
2023/04/04 06:55:21;;;;;;;;;;;18.60;51.10;;;;;;6231379;28;19909;-69
2023/04/04 06:58:22;;;;;;;;;;;18.70;51.20;;;;;;6251483;28;20011;-70
2023/04/04 07:01:22;;;;;;;;;;;18.60;51.10;;;;;;6244477;28;20376;-70
2023/04/04 07:04:23;;;;;;;;;;;18.60;51.10;;;;;;6259187;28;19917;-71
2023/04/04 07:07:24;;;;;;;;;;;18.60;51.10;;;;;;6272321;28;19909;-70
2023/04/04 07:10:24;;;;;;;;;;;18.70;51.20;;;;;;6272226;28;19940;-70
2023/04/04 07:13:25;;;;;;;;;;;18.60;51.20;;;;;;6254028;28;19913;-71
2023/04/04 07:16:27;;;;;;;;;;;18.60;51.20;;;;;;6254813;28;19913;-71
2023/04/04 07:19:27;;;;;;;;;;;18.60;51.90;;;;;;6249143;28;20463;-70
2023/04/04 07:22:28;;;;;;;;;;;18.70;51.30;;;;;;6261122;28;19920;-70
2023/04/04 07:25:29;;;;;;;;;;;18.70;51.30;;;;;;6251241;28;19909;-72
2023/04/04 07:28:30;;;;;;;;;;;18.70;51.40;;;;;;6270658;28;19913;-70
2023/04/04 07:31:30;;;;;;;;;;;18.70;51.40;;;;;;6229581;28;19956;-71
2023/04/04 07:34:31;;;;;;;;;;;18.60;51.20;;;;;;6229456;28;20279;-68
2023/04/04 07:37:32;;;;;;;;;;;18.60;51.30;;;;;;6247188;28;20264;-70
2023/04/04 07:40:33;;;;;;;;;;;18.60;51.20;;;;;;6263564;28;19909;-70
2023/04/04 07:43:33;;;;;;;;;;;18.60;51.20;;;;;;6253577;28;19924;-70
2023/04/04 07:46:34;;;;;;;;;;;18.60;51.30;;;;;;6247428;28;19915;-70
2023/04/04 07:49:34;;;;;;;;;;;18.70;51.40;;;;;;6229376;28;19920;-70
2023/04/04 07:52:35;;;;;;;;;;;18.60;51.30;;;;;;6229509;28;19933;-70
2023/04/04 07:55:36;;;;;;;;;;;18.60;51.30;;;;;;6246567;28;19948;-70
2023/04/04 07:58:37;;;;;;;;;;;18.60;51.30;;;;;;6229207;28;19921;-70
2023/04/04 08:01:38;;;;;;;;;;;18.70;51.40;;;;;;6246547;28;20256;-70
2023/04/04 08:04:38;;;;;;;;;;;18.60;51.20;;;;;;6246274;28;19914;-70
2023/04/04 08:07:39;;;;;;;;;;;18.60;51.30;;;;;;6261866;28;19913;-70
2023/04/04 08:10:39;;;;;;;;;;;18.60;51.30;;;;;;6257049;28;19960;-71
2023/04/04 08:13:40;;;;;;;;;;;18.70;51.30;;;;;;6245616;28;19909;-71
2023/04/04 08:16:41;;;;;;;;;;;18.70;51.40;;;;;;6245341;28;20005;-71
2023/04/04 08:19:41;;;;;;;;;;;18.70;52.10;;;;;;6245965;28;19956;-69
2023/04/04 08:22:42;;;;;;;;;;;18.60;51.30;;;;;;6228213;28;19920;-69
2023/04/04 08:25:44;;;;;;;;;;;18.70;51.40;;;;;;6228045;28;19960;-68
2023/04/04 08:28:45;;;;;;;;;;;18.70;51.50;;;;;;6228136;28;20338;-69
2023/04/04 08:31:45;;;;;;;;;;;18.60;51.30;;;;;;6245871;28;19932;-70
2023/04/04 08:34:46;;;;;;;;;;;18.70;51.40;;;;;;6229069;28;19993;-69
2023/04/04 08:37:47;;;;;;;;;;;18.70;51.50;;;;;;6252874;28;19913;-69
2023/04/04 08:40:48;;;;;;;;;;;18.60;51.40;;;;;;6261444;28;20000;-69
2023/04/04 08:43:53;;;;;;;;;;;18.60;51.40;;;;;;6245864;28;20383;-70
2023/04/04 08:46:54;;;;;;;;;;;18.60;51.40;;;;;;6228470;28;19916;-69
2023/04/04 08:49:55;;;;;;;;;;;18.60;51.40;;;;;;6266478;28;19912;-68
2023/04/04 08:52:58;;;;;;;;;;;18.70;51.40;;;;;;6245985;28;19951;-69
2023/04/04 08:55:58;;;;;;;;;;;18.70;51.50;;;;;;6245710;28;19975;-69
2023/04/04 08:58:59;;;;;;;;;;;18.70;51.20;;;;;;6245802;28;19909;-69
2023/04/04 09:02:21;;;;;;;;;;;18.70;51.20;;;;;;6243362;28;20031;-69
2023/04/04 09:05:22;;;;;;;;;;;18.70;51.10;;;;;;6245421;28;19957;-67
2023/04/04 09:08:23;;;;;;;;;;;18.60;51.10;;;;;;6245593;28;20002;-68
2023/04/04 09:11:25;;;;;;;;;;;18.70;51.20;;;;;;6243488;28;19909;-70
2023/04/04 09:14:26;;;;;;;;;;;18.80;51.20;;;;;;6214736;28;20372;-68
2023/04/04 09:17:27;;;;;;;;;;;18.80;51.10;;;;;;6244890;28;19913;-68
2023/04/04 09:20:34;;;;;;;;;;;18.80;50.90;;;;;;6244362;28;19982;-69
2023/04/04 09:23:35;;;;;;;;;;;18.80;50.90;;;;;;6244644;28;20284;-67
2023/04/04 09:26:51;;;;;;;;;;;18.80;50.80;;;;;;6230372;28;19924;-68
2023/04/04 09:29:52;;;;;;;;;;;18.80;50.70;;;;;;6249488;28;19913;-69
2023/04/04 09:32:53;;;;;;;;;;;18.80;50.70;;;;;;6236291;28;19913;-67
2023/04/04 09:35:54;;;;;;;;;;;18.80;50.60;;;;;;6231329;28;19917;-68
2023/04/04 09:38:55;;;;;;;;;;;18.90;50.70;;;;;;6231455;28;20394;-68
2023/04/04 09:41:56;;;;;;;;;;;18.90;50.60;;;;;;6233626;28;19964;-68
2023/04/04 09:44:57;;;;;;;;;;;18.90;50.70;;;;;;6231476;28;20403;-68
2023/04/04 09:47:59;;;;;;;;;;;18.90;50.60;;;;;;6248603;28;19909;-67
2023/04/04 09:51:02;;;;;;;;;;;18.90;50.80;;;;;;6254474;28;19955;-69
2023/04/04 09:54:05;;;;;;;;;;;18.90;50.90;;;;;;6231361;28;20418;-68
2023/04/04 09:57:07;;;;;;;;;;;18.90;50.90;;;;;;6230955;28;19929;-68
2023/04/04 10:00:08;;;;;;;;;;;18.80;50.90;;;;;;6248427;28;19917;-68
2023/04/04 10:03:09;;;;;;;;;;;18.80;51.00;;;;;;6266476;28;19935;-69
2023/04/04 10:06:11;;;;;;;;;;;18.80;50.90;;;;;;6243049;28;19928;-69
2023/04/04 10:09:12;;;;;;;;;;;18.80;51.00;;;;;;6231113;28;19913;-67
2023/04/04 10:12:13;;;;;;;;;;;18.80;51.00;;;;;;6230798;28;19916;-68
2023/04/04 10:15:14;;;;;;;;;;;18.80;51.00;;;;;;6248814;28;19919;-67
2023/04/04 10:18:16;;;;;;;;;;;18.80;51.10;;;;;;6248162;28;19999;-69
2023/04/04 10:21:16;;;;;;;;;;;18.80;51.10;;;;;;6248349;28;19917;-68
2023/04/04 10:24:17;;;;;;;;;;;18.80;51.10;;;;;;6268284;28;19920;-69
2023/04/04 10:27:19;;;;;;;;;;;18.80;51.10;;;;;;6253577;28;20371;-69
2023/04/04 10:30:20;;;;;;;;;;;18.80;51.10;;;;;;6259449;28;19913;-69
2023/04/04 10:33:41;;;;;;;;;;;18.80;51.20;;;;;;6243910;28;20002;-68
2023/04/04 10:36:42;;;;;;;;;;;18.80;51.20;;;;;;6184997;28;19913;-68
2023/04/04 10:39:50;;;;;;;;;;;18.80;51.20;;;;;;6246753;28;20394;-69
2023/04/04 10:42:51;;;;;;;;;;;18.80;51.20;;;;;;6247521;28;21707;-68
2023/04/04 10:45:52;;;;;;;;;;;18.80;51.20;;;;;;6230076;28;19909;-69
2023/04/04 10:48:53;;;;;;;;;;;18.80;51.30;;;;;;6248085;28;19909;-68
2023/04/04 10:51:55;;;;;;;;;;;18.80;51.40;;;;;;6248420;28;19909;-67
2023/04/04 10:54:57;;;;;;;;;;;18.80;51.40;;;;;;6247876;28;20298;-70
2023/04/04 10:57:58;;;;;;;;;;;18.80;51.20;;;;;;6253966;28;19987;-70
2023/04/04 11:00:59;;;;;;;;;;;18.80;50.40;;;;;;6248402;28;20356;-65
2023/04/04 11:04:15;;;;;;;;;;;18.70;50.20;;;;;;6247113;28;19912;-70
2023/04/04 11:07:16;;;;;;;;;;;18.70;49.20;;;;;;6246177;28;20379;-70
2023/04/04 11:10:24;;;;;;;;;;;18.70;48.70;;;;;;6247975;28;19972;-70
2023/04/04 11:13:27;;;;;;;;;;;18.70;48.20;;;;;;6247232;28;19940;-70
2023/04/04 11:16:42;;;;;;;;;;;18.70;48.60;;;;;;6229460;28;19913;-70
2023/04/04 11:19:57;;;;;;;;;;;18.70;49.10;;;;;;6227327;28;20299;-70
2023/04/04 11:23:07;;;;;;;;;;;18.70;49.40;;;;;;6229812;28;19919;-70
2023/04/04 11:26:09;;;;;;;;;;;18.70;49.70;;;;;;6247245;28;19915;-69
2023/04/04 11:29:18;;;;;;;;;;;18.70;49.70;;;;;;6229177;28;19910;-69
2023/04/04 11:32:43;;;;;;;;;;;18.70;49.70;;;;;;6222601;28;20265;-70
2023/04/04 11:35:48;;;;;;;;;;;18.70;49.80;;;;;;6240907;28;19913;-68
2023/04/04 11:38:50;;;;;;;;;;;18.70;49.60;;;;;;6246638;28;20000;-69
2023/04/04 11:42:02;;;;;;;;;;;18.70;49.70;;;;;;6246927;28;20426;-70
2023/04/04 11:45:03;;;;;;;;;;;18.70;49.30;;;;;;6214307;28;19916;-70
2023/04/04 11:48:05;;;;;;;;;;;18.70;49.50;;;;;;6221944;28;19909;-69
2023/04/04 11:51:07;;;;;;;;;;;18.70;49.70;;;;;;6249396;28;19913;-70
2023/04/04 11:54:14;;;;;;;;;;;18.70;49.90;;;;;;6270823;28;20641;-69
2023/04/04 11:57:18;;;;;;;;;;;18.70;50.00;;;;;;6269808;28;20197;-69
2023/04/04 12:00:28;;;;;;;;;;;18.70;50.10;;;;;;6254872;28;20439;-70
2023/04/04 12:03:28;;;;;;;;;;;18.70;50.20;;;;;;6228019;28;19928;-70
2023/04/04 12:06:31;;;;;;;;;;;18.70;50.10;;;;;;6269950;28;19909;-69
2023/04/04 12:09:32;;;;;;;;;;;18.70;50.00;;;;;;6262609;28;19975;-69
2023/04/04 12:12:35;;;;;;;;;;;18.70;50.20;;;;;;6243788;28;19996;-69
2023/04/04 12:15:36;;;;;;;;;;;18.70;50.30;;;;;;6226136;28;19959;-69
2023/04/04 12:18:37;;;;;;;;;;;18.70;50.30;;;;;;6244666;28;19921;-69
2023/04/04 12:21:38;;;;;;;;;;;18.70;50.40;;;;;;6250459;28;19992;-69
2023/04/04 12:24:39;;;;;;;;;;;18.70;50.40;;;;;;6250966;28;19913;-71
2023/04/04 12:27:40;;;;;;;;;;;18.70;50.40;;;;;;6251450;28;20378;-69
2023/04/04 12:30:41;;;;;;;;;;;18.70;50.40;;;;;;6251543;28;20268;-70
2023/04/04 12:33:41;;;;;;;;;;;18.70;50.50;;;;;;6268945;28;19913;-70
2023/04/04 12:36:42;;;;;;;;;;;18.70;50.40;;;;;;6268829;28;19951;-70
2023/04/04 12:39:49;;;;;;;;;;;18.70;50.40;;;;;;6246323;28;19960;-70
2023/04/04 12:42:50;;;;;;;;;;;18.70;50.50;;;;;;6241002;28;20024;-69
2023/04/04 12:45:52;;;;;;;;;;;18.70;50.40;;;;;;6222945;28;19913;-69
2023/04/04 12:48:54;;;;;;;;;;;18.70;50.50;;;;;;6220990;28;19909;-70
2023/04/04 12:51:55;;;;;;;;;;;18.70;50.50;;;;;;6230819;28;19909;-70
2023/04/04 12:54:57;;;;;;;;;;;18.70;50.60;;;;;;6263753;28;20007;-70
2023/04/04 12:57:59;;;;;;;;;;;18.70;50.50;;;;;;6244858;28;20335;-70
2023/04/04 13:01:01;;;;;;;;;;;18.70;50.50;;;;;;6246407;28;19913;-69
2023/04/04 13:04:05;;;;;;;;;;;18.70;50.60;;;;;;6248321;28;19913;-70
2023/04/04 13:07:44;;;;;;;;;;;18.70;50.60;;;;;;6252224;28;19913;-69
2023/04/04 13:10:55;;;;;;;;;;;18.70;50.60;;;;;;6182552;28;19914;-69
2023/04/04 13:13:59;;;;;;;;;;;18.70;50.70;;;;;;6197159;28;19913;-69
2023/04/04 13:17:03;;;;;;;;;;;18.70;50.70;;;;;;6246539;28;19913;-68
2023/04/04 13:20:04;;;;;;;;;;;18.70;50.70;;;;;;6248057;28;19913;-69
2023/04/04 13:23:05;;;;;;;;;;;18.70;50.70;;;;;;6255321;28;19934;-72
2023/04/04 13:26:07;;;;;;;;;;;18.70;50.70;;;;;;6238715;28;19913;-68
2023/04/04 13:29:07;;;;;;;;;;;18.70;50.70;;;;;;6255414;28;19909;-68
2023/04/04 13:32:08;;;;;;;;;;;18.70;50.90;;;;;;6272890;28;19940;-68
2023/04/04 13:35:09;;;;;;;;;;;18.70;50.70;;;;;;6263096;28;19955;-71
2023/04/04 13:38:10;;;;;;;;;;;18.70;50.70;;;;;;6248461;28;19917;-68
2023/04/04 13:41:10;;;;;;;;;;;18.70;50.70;;;;;;6248523;28;19909;-68
2023/04/04 13:44:12;;;;;;;;;;;18.70;50.70;;;;;;6248104;28;19956;-68
2023/04/04 13:47:13;;;;;;;;;;;18.70;50.60;;;;;;6247756;28;19989;-69
2023/04/04 13:50:13;;;;;;;;;;;18.70;50.60;;;;;;6248326;28;19935;-69
2023/04/04 13:53:14;;;;;;;;;;;18.70;50.70;;;;;;6254955;28;19913;-69
2023/04/04 13:56:15;;;;;;;;;;;18.70;50.70;;;;;;6266572;28;19921;-69
2023/04/04 13:59:16;;;;;;;;;;;18.70;50.70;;;;;;6247953;28;19924;-68
2023/04/04 14:02:17;;;;;;;;;;;18.70;50.70;;;;;;6235718;28;19913;-68
2023/04/04 14:05:18;;;;;;;;;;;18.80;50.60;;;;;;6272749;28;20435;-68
2023/04/04 14:08:18;;;;;;;;;;;18.70;50.60;;;;;;6265302;28;19913;-67
2023/04/04 14:11:19;;;;;;;;;;;18.70;50.60;;;;;;6259804;28;19932;-68
2023/04/04 14:14:19;;;;;;;;;;;18.70;50.60;;;;;;6259909;28;19917;-68
2023/04/04 14:17:20;;;;;;;;;;;18.70;50.70;;;;;;6259427;28;20399;-68
2023/04/04 14:20:20;;;;;;;;;;;18.70;50.60;;;;;;6248050;28;20015;-68
2023/04/04 14:23:21;;;;;;;;;;;18.70;50.70;;;;;;6271273;28;20641;-69
2023/04/04 14:26:22;;;;;;;;;;;18.70;50.70;;;;;;6271917;28;19913;-68
2023/04/04 14:29:22;;;;;;;;;;;18.70;50.60;;;;;;6272037;28;20013;-69
2023/04/04 14:32:23;;;;;;;;;;;18.80;50.70;;;;;;6241961;28;19909;-68
2023/04/04 14:35:24;;;;;;;;;;;18.80;50.70;;;;;;6247154;28;19913;-68
2023/04/04 14:38:25;;;;;;;;;;;18.70;50.60;;;;;;6247192;28;20295;-69
2023/04/04 14:41:26;;;;;;;;;;;18.70;50.70;;;;;;6228603;28;20303;-68
2023/04/04 14:44:27;;;;;;;;;;;18.70;50.70;;;;;;6246595;28;19920;-68
2023/04/04 14:47:27;;;;;;;;;;;18.70;50.80;;;;;;6229100;28;19956;-68
2023/04/04 14:50:28;;;;;;;;;;;18.70;50.80;;;;;;6264947;28;19971;-69
2023/04/04 14:53:29;;;;;;;;;;;18.70;50.80;;;;;;6234867;28;19917;-68
2023/04/04 14:56:30;;;;;;;;;;;18.70;50.90;;;;;;6244158;28;19932;-68
2023/04/04 14:59:31;;;;;;;;;;;18.80;51.20;;;;;;6246571;28;20379;-67
2023/04/04 15:02:32;;;;;;;;;;;18.80;50.90;;;;;;6245249;28;19928;-67
2023/04/04 15:05:33;;;;;;;;;;;18.80;50.60;;;;;;6269867;28;20307;-68
2023/04/04 15:08:34;;;;;;;;;;;18.80;50.60;;;;;;6253257;28;20000;-68
2023/04/04 15:11:34;;;;;;;;;;;18.80;50.60;;;;;;6256607;28;19913;-68
2023/04/04 15:14:35;;;;;;;;;;;18.80;50.60;;;;;;6270577;28;20403;-68
2023/04/04 15:17:37;;;;;;;;;;;18.80;50.50;;;;;;6262752;28;19919;-69
2023/04/04 15:20:38;;;;;;;;;;;18.80;50.50;;;;;;6246858;28;20390;-73
2023/04/04 15:23:38;;;;;;;;;;;18.80;50.40;;;;;;6244838;28;19953;-66
2023/04/04 15:26:39;;;;;;;;;;;18.80;50.40;;;;;;6228792;28;19909;-69
2023/04/04 15:29:39;;;;;;;;;;;18.80;49.50;;;;;;6245707;28;19909;-69
2023/04/04 15:32:40;;;;;;;;;;;18.80;48.60;;;;;;6270035;28;20050;-75
2023/04/04 15:35:41;;;;;;;;;;;18.80;47.70;;;;;;6256578;28;19909;-69
2023/04/04 15:38:41;;;;;;;;;;;18.80;47.60;;;;;;6245584;28;20730;-68
2023/04/04 15:41:42;;;;;;;;;;;18.80;46.50;;;;;;6246104;28;19909;-67
2023/04/04 15:44:43;;;;;;;;;;;18.80;46.90;;;;;;6244690;28;19920;-67
2023/04/04 15:47:44;;;;;;;;;;;18.90;47.10;;;;;;6245627;28;19909;-67
2023/04/04 15:50:45;;;;;;;;;;;18.80;47.10;;;;;;6269793;28;20393;-67
2023/04/04 15:53:46;;;;;;;;;;;18.80;47.20;;;;;;6258981;28;19931;-67
2023/04/04 15:56:46;;;;;;;;;;;18.80;47.60;;;;;;6244499;28;19921;-66
2023/04/04 15:59:47;;;;;;;;;;;18.80;47.70;;;;;;6244870;28;19916;-67
2023/04/04 16:02:48;;;;;;;;;;;18.80;48.00;;;;;;6244077;28;19913;-67
2023/04/04 16:05:48;;;;;;;;;;;18.80;48.10;;;;;;6244853;28;19913;-67
2023/04/04 16:08:49;;;;;;;;;;;18.80;48.20;;;;;;6244944;28;19913;-66
2023/04/04 16:11:49;;;;;;;;;;;18.80;48.20;;;;;;6252463;28;19909;-67
2023/04/04 16:14:50;;;;;;;;;;;18.80;48.20;;;;;;6243830;28;19909;-67
2023/04/04 16:17:52;;;;;;;;;;;18.80;48.60;;;;;;6267451;28;19913;-67
2023/04/04 16:20:53;;;;;;;;;;;18.80;48.80;;;;;;6242835;28;19913;-67
2023/04/04 16:23:53;;;;;;;;;;;18.80;48.90;;;;;;6241079;28;19913;-66
2023/04/04 16:26:55;;;;;;;;;;;18.80;49.10;;;;;;6242315;28;19917;-67
2023/04/04 16:29:55;;;;;;;;;;;18.80;49.00;;;;;;6266633;28;19912;-67
2023/04/04 16:32:56;;;;;;;;;;;18.80;49.20;;;;;;6266717;28;20295;-66
2023/04/04 16:35:56;;;;;;;;;;;18.80;49.20;;;;;;6226418;28;19909;-66
2023/04/04 16:38:58;;;;;;;;;;;18.70;49.20;;;;;;6224099;28;20000;-67
2023/04/04 16:41:59;;;;;;;;;;;18.70;49.20;;;;;;6257755;28;20005;-67
2023/04/04 16:45:00;;;;;;;;;;;18.70;49.40;;;;;;6263346;28;19908;-66
2023/04/04 16:48:00;;;;;;;;;;;18.80;49.40;;;;;;6244229;28;19921;-67
2023/04/04 16:51:01;;;;;;;;;;;18.70;49.40;;;;;;6247628;28;19919;-66
2023/04/04 16:54:01;;;;;;;;;;;18.70;49.40;;;;;;6263040;28;19910;-66
2023/04/04 16:57:02;;;;;;;;;;;18.70;49.60;;;;;;6242022;28;20386;-66
2023/04/04 17:00:05;;;;;;;;;;;18.70;49.60;;;;;;6231967;28;19916;-67
2023/04/04 17:03:05;;;;;;;;;;;18.70;49.50;;;;;;6215467;28;20431;-67
2023/04/04 17:06:06;;;;;;;;;;;18.70;49.50;;;;;;6229298;28;19913;-67
2023/04/04 17:09:07;;;;;;;;;;;18.80;49.70;;;;;;6219670;28;19910;-67
2023/04/04 17:12:08;;;;;;;;;;;18.70;49.70;;;;;;6260848;28;20675;-66
2023/04/04 17:15:09;;;;;;;;;;;18.70;49.50;;;;;;6267084;28;19916;-67
2023/04/04 17:18:10;;;;;;;;;;;18.70;49.70;;;;;;6267760;28;19949;-68
2023/04/04 17:21:10;;;;;;;;;;;18.70;49.80;;;;;;6268356;28;19909;-68
2023/04/04 17:24:11;;;;;;;;;;;18.70;49.70;;;;;;6267157;28;20003;-69
2023/04/04 17:27:12;;;;;;;;;;;18.70;49.90;;;;;;6250028;28;19962;-68
2023/04/04 17:30:12;;;;;;;;;;;18.70;49.90;;;;;;6267424;28;19909;-69
2023/04/04 17:33:13;;;;;;;;;;;18.70;49.90;;;;;;6267337;28;19936;-69
2023/04/04 17:36:14;;;;;;;;;;;18.70;49.80;;;;;;6267314;28;19909;-68